createdAt,value
2022-09-23T00:02:12.652Z,67
2022-09-23T00:05:12.567Z,67
2022-09-23T00:08:12.587Z,67
2022-09-23T00:11:12.588Z,67
2022-09-23T00:14:12.573Z,67
2022-09-23T00:17:12.639Z,67
2022-09-23T00:20:12.579Z,67
2022-09-23T00:23:12.590Z,67
2022-09-23T00:26:12.593Z,67
2022-09-23T00:29:12.581Z,67
2022-09-23T00:32:12.589Z,67
2022-09-23T00:35:12.576Z,67
2022-09-23T00:38:12.593Z,67
2022-09-23T00:41:12.589Z,67
2022-09-23T00:44:12.578Z,67
2022-09-23T00:47:12.586Z,67
2022-09-23T00:50:12.585Z,67.5
2022-09-23T00:53:12.600Z,68
2022-09-23T00:56:12.591Z,68
2022-09-23T00:59:12.581Z,68
2022-09-23T01:02:12.627Z,68
2022-09-23T01:05:12.583Z,68
2022-09-23T01:08:12.579Z,68
2022-09-23T01:11:12.587Z,68
2022-09-23T01:14:12.585Z,68
2022-09-23T01:17:12.589Z,68
2022-09-23T01:20:12.573Z,68
2022-09-23T01:23:12.589Z,68
2022-09-23T01:26:12.584Z,68
2022-09-23T01:29:12.585Z,68
2022-09-23T01:32:12.577Z,68
2022-09-23T01:35:12.589Z,68
2022-09-23T01:38:12.587Z,68
2022-09-23T01:41:12.592Z,68.5
2022-09-23T01:44:12.583Z,68.5
2022-09-23T01:47:12.595Z,68.5
2022-09-23T01:50:12.575Z,69
2022-09-23T01:53:12.591Z,69
2022-09-23T01:56:12.587Z,69
2022-09-23T01:59:12.578Z,69
2022-09-23T02:02:12.635Z,69
2022-09-23T02:05:12.583Z,69
2022-09-23T02:08:12.587Z,69
2022-09-23T02:11:12.592Z,69
2022-09-23T02:14:12.585Z,69
2022-09-23T02:17:12.588Z,69
2022-09-23T02:20:12.583Z,69
2022-09-23T02:23:12.594Z,69
2022-09-23T02:26:12.591Z,69
2022-09-23T02:29:12.591Z,69
2022-09-23T02:32:12.637Z,69
2022-09-23T02:35:12.580Z,69
2022-09-23T02:38:12.594Z,69
2022-09-23T02:41:12.598Z,69.5
2022-09-23T02:44:12.576Z,69.5
2022-09-23T02:47:12.596Z,69.5
2022-09-23T02:50:12.577Z,69.5
2022-09-23T02:53:12.595Z,70
2022-09-23T02:56:12.592Z,70
2022-09-23T02:59:12.591Z,70
2022-09-23T03:02:12.609Z,70
2022-09-23T03:05:12.582Z,70
2022-09-23T03:08:12.611Z,70
2022-09-23T03:11:12.599Z,70
2022-09-23T03:14:12.580Z,70
2022-09-23T03:17:12.595Z,70
2022-09-23T03:20:12.587Z,70
2022-09-23T03:23:12.600Z,70
2022-09-23T03:26:12.600Z,70
2022-09-23T03:29:12.600Z,70
2022-09-23T03:32:12.613Z,70
2022-09-23T03:35:12.598Z,70
2022-09-23T03:38:12.608Z,70
2022-09-23T03:41:12.606Z,70
2022-09-23T03:44:12.602Z,70
2022-09-23T03:47:12.607Z,70
2022-09-23T03:50:12.600Z,70
2022-09-23T03:53:12.618Z,70
2022-09-23T03:56:12.611Z,70
2022-09-23T03:59:12.609Z,70.5
2022-09-23T04:02:12.662Z,70.5
2022-09-23T04:05:12.603Z,70.5
2022-09-23T04:08:12.614Z,70.5
2022-09-23T04:11:12.608Z,70.5
2022-09-23T04:14:12.607Z,70.5
2022-09-23T04:17:12.604Z,70.5
2022-09-23T04:20:12.606Z,70.5
2022-09-23T04:23:12.631Z,70.5
2022-09-23T04:26:12.604Z,70.5
2022-09-23T04:29:12.605Z,70.5
2022-09-23T04:32:12.628Z,70.5
2022-09-23T04:35:12.620Z,70.5
2022-09-23T04:38:12.620Z,70.5
2022-09-23T04:41:12.625Z,70.5
2022-09-23T04:44:12.615Z,70.5
2022-09-23T04:47:12.624Z,70.5
2022-09-23T04:50:12.619Z,70.5
2022-09-23T04:53:12.615Z,70.5
2022-09-23T04:56:12.614Z,70.5
2022-09-23T04:59:12.617Z,70.5
2022-09-23T05:02:12.699Z,71
2022-09-23T05:05:12.618Z,71
2022-09-23T05:08:12.630Z,71
2022-09-23T05:11:12.624Z,71
2022-09-23T05:14:12.672Z,71
2022-09-23T05:17:12.621Z,71
2022-09-23T05:20:12.615Z,71
2022-09-23T05:23:12.610Z,71
2022-09-23T05:26:12.619Z,71
2022-09-23T05:29:12.624Z,71
2022-09-23T05:32:12.618Z,71
2022-09-23T05:35:12.625Z,71
2022-09-23T05:38:12.615Z,71
2022-09-23T05:41:12.636Z,71
2022-09-23T05:44:12.624Z,71
2022-09-23T05:47:12.624Z,71
2022-09-23T05:50:12.614Z,71.5
2022-09-23T05:53:12.619Z,71.5
2022-09-23T05:56:12.634Z,71.5
2022-09-23T05:59:12.626Z,71.5
2022-09-23T06:02:12.644Z,71.5
2022-09-23T06:05:12.617Z,71.5
2022-09-23T06:08:12.630Z,71.5
2022-09-23T06:11:12.624Z,71.5
2022-09-23T06:14:12.624Z,71.5
2022-09-23T06:17:12.624Z,71.5
2022-09-23T06:20:12.621Z,71.5
2022-09-23T06:23:12.627Z,71.5
2022-09-23T06:26:12.638Z,71.5
2022-09-23T06:29:12.627Z,71.5
2022-09-23T06:32:12.635Z,71.5
2022-09-23T06:35:19.499Z,71.5
2022-09-23T06:38:12.623Z,71.5
2022-09-23T06:41:12.636Z,71.5
2022-09-23T06:44:12.637Z,71.5
2022-09-23T06:47:12.631Z,71.5
2022-09-23T06:50:12.667Z,71.5
2022-09-23T06:53:12.623Z,71.5
2022-09-23T06:56:12.636Z,71
2022-09-23T06:59:12.630Z,70.5
2022-09-23T07:02:12.821Z,70.5
2022-09-23T07:05:12.623Z,70.5
2022-09-23T07:08:12.628Z,70.5
2022-09-23T07:11:12.656Z,70.5
2022-09-23T07:14:12.643Z,70.5
2022-09-23T07:17:12.637Z,70.5
2022-09-23T07:20:12.645Z,70.5
2022-09-23T07:23:12.645Z,70.5
2022-09-23T07:26:12.638Z,70.5
2022-09-23T07:29:12.640Z,70.5
2022-09-23T07:32:14.174Z,70.5
2022-09-23T07:35:12.640Z,70.5
2022-09-23T07:38:12.648Z,70.5
2022-09-23T07:41:12.665Z,70.5
2022-09-23T07:44:12.640Z,70.5
2022-09-23T07:47:12.643Z,70.5
2022-09-23T07:50:12.645Z,70
2022-09-23T07:53:12.646Z,70
2022-09-23T07:56:12.650Z,69.5
2022-09-23T07:59:12.642Z,69.5
2022-09-23T08:02:12.672Z,69.5
2022-09-23T08:05:12.673Z,69.5
2022-09-23T08:08:12.648Z,69.5
2022-09-23T08:11:12.648Z,69.5
2022-09-23T08:14:12.640Z,69.5
2022-09-23T08:17:12.653Z,69.5
2022-09-23T08:20:12.646Z,69.5
2022-09-23T08:23:12.686Z,69.5
2022-09-23T08:26:18.198Z,69.5
2022-09-23T08:29:12.659Z,69.5
2022-09-23T08:32:12.647Z,69.5
2022-09-23T08:35:12.652Z,69.5
2022-09-23T08:38:12.650Z,69.5
2022-09-23T08:41:12.665Z,69.5
2022-09-23T08:44:12.649Z,69.5
2022-09-23T08:47:12.650Z,69.5
2022-09-23T08:50:12.653Z,69
2022-09-23T08:53:12.653Z,68.5
2022-09-23T08:56:12.647Z,68.5
2022-09-23T08:59:12.660Z,68
2022-09-23T09:02:12.675Z,67.5
2022-09-23T09:05:12.700Z,67.5
2022-09-23T09:08:12.654Z,67
2022-09-23T09:11:12.646Z,67
2022-09-23T09:14:12.653Z,67
2022-09-23T09:17:12.645Z,67
2022-09-23T09:20:12.639Z,66.5
2022-09-23T09:23:12.681Z,66.5
2022-09-23T09:26:12.667Z,66
2022-09-23T09:29:31.056Z,66
2022-09-23T09:32:12.658Z,65.5
2022-09-23T09:35:12.658Z,65.5
2022-09-23T09:38:12.651Z,65
2022-09-23T09:41:12.687Z,65
2022-09-23T09:44:12.653Z,64.5
2022-09-23T09:47:12.656Z,64.5
2022-09-23T09:50:12.655Z,64.5
2022-09-23T09:53:12.626Z,64
2022-09-23T09:56:12.606Z,63.5
2022-09-23T09:59:12.597Z,63.5
2022-09-23T10:02:12.598Z,63.5
2022-09-23T10:05:12.597Z,63.5
2022-09-23T10:08:12.597Z,63.5
2022-09-23T10:11:12.592Z,63.5
2022-09-23T10:14:12.599Z,63
2022-09-23T10:17:12.599Z,63
2022-09-23T10:20:12.595Z,63
2022-09-23T10:23:12.598Z,63
2022-09-23T10:26:12.616Z,62.5
2022-09-23T10:29:12.602Z,62.5
2022-09-23T10:32:12.599Z,62.5
2022-09-23T10:35:12.611Z,62.5
2022-09-23T10:38:12.588Z,62.5
2022-09-23T10:41:12.623Z,62
2022-09-23T10:44:12.603Z,62.5
2022-09-23T10:47:12.624Z,62.5
2022-09-23T10:50:12.611Z,62.5
2022-09-23T10:53:12.613Z,62
2022-09-23T10:56:12.644Z,62
2022-09-23T10:59:12.615Z,62
2022-09-23T11:02:12.625Z,62
2022-09-23T11:05:12.618Z,62
2022-09-23T11:08:12.616Z,62
2022-09-23T11:11:12.650Z,62
2022-09-23T11:14:12.625Z,61.5
2022-09-23T11:17:12.654Z,61.5
2022-09-23T11:20:12.669Z,61.5
2022-09-23T11:23:12.625Z,61.5
2022-09-23T11:26:12.654Z,61.5
2022-09-23T11:29:12.627Z,61
2022-09-23T11:32:12.637Z,61
2022-09-23T11:35:12.628Z,61
2022-09-23T11:38:12.643Z,61
2022-09-23T11:41:12.637Z,61
2022-09-23T11:44:12.638Z,61
2022-09-23T11:47:12.638Z,61
2022-09-23T11:50:12.672Z,61.5
2022-09-23T11:53:12.653Z,61.5
2022-09-23T11:56:12.856Z,61.5
2022-09-23T11:59:12.900Z,61.5
2022-09-23T12:02:19.847Z,61
2022-09-23T12:05:12.735Z,61
2022-09-23T12:08:12.651Z,61
2022-09-23T12:11:12.652Z,60.5
2022-09-23T12:14:12.640Z,60.5
2022-09-23T12:17:12.650Z,60.5
2022-09-23T12:20:12.643Z,60.5
2022-09-23T12:23:12.669Z,60.5
2022-09-23T12:26:12.652Z,60.5
2022-09-23T12:29:12.656Z,60.5
2022-09-23T12:32:12.655Z,60
2022-09-23T12:35:12.654Z,60
2022-09-23T12:38:12.657Z,60
2022-09-23T12:41:12.678Z,60
2022-09-23T12:44:12.678Z,60
2022-09-23T12:47:12.657Z,60
2022-09-23T12:50:16.669Z,60
2022-09-23T12:53:12.681Z,60
2022-09-23T12:56:12.686Z,59.5
2022-09-23T12:59:12.689Z,59.5
2022-09-23T13:02:12.722Z,59.5
2022-09-23T13:05:12.685Z,59.5
2022-09-23T13:08:12.675Z,59
2022-09-23T13:11:12.667Z,59
2022-09-23T13:14:12.684Z,59
2022-09-23T13:17:12.691Z,59
2022-09-23T13:20:12.668Z,59
2022-09-23T13:23:12.706Z,59
2022-09-23T13:26:12.684Z,59
2022-09-23T13:29:12.690Z,59
2022-09-23T13:32:12.702Z,59
2022-09-23T13:35:12.695Z,59
2022-09-23T13:38:12.707Z,59
2022-09-23T13:41:12.690Z,59.5
2022-09-23T13:44:12.680Z,59.5
2022-09-23T13:47:12.686Z,59.5
2022-09-23T13:50:12.684Z,59.5
2022-09-23T13:53:12.684Z,59.5
2022-09-23T13:56:12.685Z,59
2022-09-23T13:59:12.681Z,59
2022-09-23T14:02:12.811Z,59
2022-09-23T14:05:12.696Z,59
2022-09-23T14:08:12.702Z,59
2022-09-23T14:11:12.686Z,59
2022-09-23T14:14:12.692Z,59
2022-09-23T14:17:12.695Z,59
2022-09-23T14:20:12.686Z,59
2022-09-23T14:23:12.713Z,59
2022-09-23T14:26:12.693Z,59
2022-09-23T14:29:12.701Z,59
2022-09-23T14:32:12.700Z,59
2022-09-23T14:35:12.703Z,59
2022-09-23T14:38:13.549Z,59.5
2022-09-23T14:41:12.774Z,59.5
2022-09-23T14:44:12.715Z,59.5
2022-09-23T14:47:12.701Z,59.5
2022-09-23T14:50:12.713Z,59.5
2022-09-23T14:53:12.720Z,59.5
2022-09-23T14:56:12.708Z,59.5
2022-09-23T14:59:12.714Z,59.5
2022-09-23T15:02:12.715Z,59.5
2022-09-23T15:05:12.708Z,59.5
2022-09-23T15:08:12.723Z,59.5
2022-09-23T15:11:12.714Z,60
2022-09-23T15:14:33.471Z,60
2022-09-23T15:17:12.710Z,60
2022-09-23T15:20:12.700Z,60.5
2022-09-23T15:23:12.734Z,60.5
2022-09-23T15:26:12.710Z,60.5
2022-09-23T15:29:12.730Z,60.5
2022-09-23T15:32:12.728Z,60.5
2022-09-23T15:35:12.725Z,60.5
2022-09-23T15:38:12.730Z,60.5
2022-09-23T15:41:12.716Z,60.5
2022-09-23T15:44:12.720Z,61
2022-09-23T15:47:12.714Z,61
2022-09-23T15:50:12.722Z,61
2022-09-23T15:53:12.726Z,61
2022-09-23T15:56:12.722Z,61.5
2022-09-23T15:59:12.722Z,61.5
2022-09-23T16:02:12.795Z,61.5
2022-09-23T16:05:12.738Z,61.5
2022-09-23T16:08:12.732Z,61.5
2022-09-23T16:11:12.725Z,61.5
2022-09-23T16:14:12.726Z,61.5
2022-09-23T16:17:12.733Z,61.5
2022-09-23T16:20:12.731Z,61.5
2022-09-23T16:23:12.727Z,62
2022-09-23T16:26:12.724Z,62
2022-09-23T16:29:12.732Z,62
2022-09-23T16:32:12.722Z,62
2022-09-23T16:35:12.724Z,62
2022-09-23T16:38:12.729Z,62
2022-09-23T16:41:12.736Z,62
2022-09-23T16:44:12.744Z,62
2022-09-23T16:47:12.723Z,62
2022-09-23T16:50:12.736Z,62.5
2022-09-23T16:53:12.733Z,62.5
2022-09-23T16:56:12.750Z,63
2022-09-23T16:59:12.735Z,63
2022-09-23T17:02:12.787Z,63
2022-09-23T17:05:12.742Z,63
2022-09-23T17:08:12.829Z,63
2022-09-23T17:11:12.740Z,63
2022-09-23T17:14:12.762Z,63
2022-09-23T17:17:12.730Z,63
2022-09-23T17:20:12.730Z,63
2022-09-23T17:23:12.728Z,63
2022-09-23T17:26:12.751Z,63
2022-09-23T17:29:12.734Z,63
2022-09-23T17:32:12.727Z,63
2022-09-23T17:35:12.733Z,63
2022-09-23T17:38:12.739Z,63
2022-09-23T17:41:12.758Z,63.5
2022-09-23T17:44:12.768Z,63.5
2022-09-23T17:47:12.745Z,63.5
2022-09-23T17:50:12.745Z,63.5
2022-09-23T17:53:12.740Z,64
2022-09-23T17:56:12.765Z,64
2022-09-23T17:59:12.755Z,64
2022-09-23T18:02:15.482Z,64
2022-09-23T18:05:12.772Z,64
2022-09-23T18:08:12.749Z,64.5
2022-09-23T18:11:12.759Z,64.5
2022-09-23T18:14:12.752Z,64.5
2022-09-23T18:17:12.748Z,64.5
2022-09-23T18:20:12.825Z,64.5
2022-09-23T18:23:12.755Z,65.5
2022-09-23T18:26:12.764Z,65.5
2022-09-23T18:29:12.748Z,65.5
2022-09-23T18:32:14.296Z,65.5
2022-09-23T18:35:12.744Z,65.5
2022-09-23T18:38:12.744Z,65.5
2022-09-23T18:41:12.772Z,65.5
2022-09-23T18:44:12.752Z,66
2022-09-23T18:47:12.751Z,66
2022-09-23T18:50:12.761Z,66
2022-09-23T18:53:12.755Z,66.5
2022-09-23T18:56:12.773Z,66.5
2022-09-23T18:59:12.752Z,66.5
2022-09-23T19:02:12.773Z,66.5
2022-09-23T19:05:12.758Z,66.5
2022-09-23T19:08:12.757Z,67
2022-09-23T19:11:12.766Z,67
2022-09-23T19:14:12.910Z,67
2022-09-23T19:17:12.757Z,67
2022-09-23T19:20:12.756Z,67
2022-09-23T19:23:12.757Z,67.5
2022-09-23T19:26:12.770Z,67.5
2022-09-23T19:29:12.748Z,67.5
2022-09-23T19:32:12.784Z,68
2022-09-23T19:35:12.768Z,68
2022-09-23T19:38:12.757Z,68
2022-09-23T19:41:12.774Z,68
2022-09-23T19:44:12.751Z,68
2022-09-23T19:47:12.834Z,68
2022-09-23T19:50:12.763Z,68.5
2022-09-23T19:53:12.757Z,68.5
2022-09-23T19:56:12.783Z,68.5
2022-09-23T19:59:16.442Z,69
2022-09-23T20:02:12.804Z,69
2022-09-23T20:05:13.302Z,69
2022-09-23T20:08:12.791Z,69
2022-09-23T20:11:12.776Z,69
2022-09-23T20:14:12.762Z,69
2022-09-23T20:17:12.765Z,69
2022-09-23T20:20:12.755Z,69
2022-09-23T20:23:12.756Z,69
2022-09-23T20:26:12.784Z,69
2022-09-23T20:29:12.760Z,69.5
2022-09-23T20:32:12.765Z,69.5
2022-09-23T20:35:12.775Z,69.5
2022-09-23T20:38:12.756Z,69.5
2022-09-23T20:41:12.783Z,70
2022-09-23T20:44:13.011Z,70
2022-09-23T20:47:12.787Z,70
2022-09-23T20:50:12.764Z,70
2022-09-23T20:53:12.766Z,70
2022-09-23T20:56:12.783Z,70
2022-09-23T20:59:12.766Z,70
2022-09-23T21:02:12.829Z,70.5
2022-09-23T21:05:12.771Z,70.5
2022-09-23T21:08:12.763Z,70.5
2022-09-23T21:11:12.781Z,70.5
2022-09-23T21:14:12.770Z,71
2022-09-23T21:17:13.495Z,71
2022-09-23T21:20:12.780Z,71
2022-09-23T21:23:12.793Z,71
2022-09-23T21:26:12.793Z,71
2022-09-23T21:29:12.769Z,71
2022-09-23T21:32:12.777Z,71
2022-09-23T21:35:12.783Z,71
2022-09-23T21:38:12.767Z,71.5
2022-09-23T21:41:12.774Z,71.5
2022-09-23T21:44:12.776Z,71.5
2022-09-23T21:47:12.814Z,71.5
2022-09-23T21:50:12.773Z,71.5
2022-09-23T21:53:12.779Z,71.5
2022-09-23T21:56:14.825Z,72
2022-09-23T21:59:12.765Z,72
2022-09-23T22:02:12.786Z,72
2022-09-23T22:05:12.783Z,72
2022-09-23T22:08:12.767Z,72
2022-09-23T22:11:12.805Z,72
2022-09-23T22:14:12.768Z,72
2022-09-23T22:17:12.783Z,72.5
2022-09-23T22:20:12.782Z,72.5
2022-09-23T22:23:12.771Z,72.5
2022-09-23T22:26:12.797Z,72.5
2022-09-23T22:29:12.777Z,72.5
2022-09-23T22:32:12.806Z,72.5
2022-09-23T22:35:12.781Z,72.5
2022-09-23T22:38:12.785Z,72.5
2022-09-23T22:41:12.790Z,72.5
2022-09-23T22:44:12.776Z,72.5
2022-09-23T22:47:12.798Z,72.5
2022-09-23T22:50:12.781Z,72.5
2022-09-23T22:53:12.780Z,72.5
2022-09-23T22:56:12.794Z,72.5
2022-09-23T22:59:12.785Z,72.5
2022-09-23T23:02:12.900Z,72.5
2022-09-23T23:05:12.790Z,72.5
2022-09-23T23:08:12.784Z,72.5
2022-09-23T23:11:12.802Z,72.5
2022-09-23T23:14:12.781Z,73
2022-09-23T23:17:12.792Z,73
2022-09-23T23:20:12.797Z,73
2022-09-23T23:23:12.785Z,73
2022-09-23T23:26:12.795Z,73
2022-09-23T23:29:12.789Z,73
2022-09-23T23:32:12.827Z,73
2022-09-23T23:35:12.798Z,73.5
2022-09-23T23:38:12.782Z,73.5
2022-09-23T23:41:12.814Z,73.5
2022-09-23T23:44:12.792Z,73.5
2022-09-23T23:47:12.804Z,73.5
2022-09-23T23:50:12.801Z,73.5
2022-09-23T23:53:12.786Z,73.5
2022-09-23T23:56:12.816Z,73.5
2022-09-23T23:59:12.795Z,73.5
